sensor_id;sensor_type;location;lat;lon;timestamp;P1;durP1;ratioP1;P2;durP2;ratioP2
38332;SDS011;25748;46.670;14.272;2023-02-14T00:00:03;7.67;;;4.53;;
38332;SDS011;25748;46.670;14.272;2023-02-14T00:02:30;9.53;;;4.80;;
38332;SDS011;25748;46.670;14.272;2023-02-14T00:04:55;6.67;;;3.33;;
38332;SDS011;25748;46.670;14.272;2023-02-14T00:07:21;8.07;;;3.90;;
38332;SDS011;25748;46.670;14.272;2023-02-14T00:09:46;11.53;;;4.50;;
38332;SDS011;25748;46.670;14.272;2023-02-14T00:12:12;8.63;;;3.40;;
38332;SDS011;25748;46.670;14.272;2023-02-14T00:14:38;11.10;;;4.30;;
38332;SDS011;25748;46.670;14.272;2023-02-14T00:17:22;10.67;;;4.07;;
38332;SDS011;25748;46.670;14.272;2023-02-14T00:19:47;10.03;;;4.77;;
38332;SDS011;25748;46.670;14.272;2023-02-14T00:22:13;9.70;;;4.60;;
38332;SDS011;25748;46.670;14.272;2023-02-14T00:24:39;7.77;;;3.67;;
38332;SDS011;25748;46.670;14.272;2023-02-14T00:27:04;15.17;;;3.40;;
38332;SDS011;25748;46.670;14.272;2023-02-14T00:29:30;6.33;;;3.70;;
38332;SDS011;25748;46.670;14.272;2023-02-14T00:31:56;6.00;;;2.77;;
38332;SDS011;25748;46.670;14.272;2023-02-14T00:34:22;11.10;;;2.97;;
38332;SDS011;25748;46.670;14.272;2023-02-14T00:36:49;6.10;;;3.93;;
38332;SDS011;25748;46.670;14.272;2023-02-14T00:39:15;5.67;;;3.20;;
38332;SDS011;25748;46.670;14.272;2023-02-14T00:41:42;9.87;;;3.63;;
38332;SDS011;25748;46.670;14.272;2023-02-14T00:44:08;11.77;;;4.10;;
38332;SDS011;25748;46.670;14.272;2023-02-14T00:46:35;5.77;;;3.23;;
38332;SDS011;25748;46.670;14.272;2023-02-14T00:49:01;8.57;;;3.53;;
38332;SDS011;25748;46.670;14.272;2023-02-14T00:51:26;10.53;;;3.33;;
38332;SDS011;25748;46.670;14.272;2023-02-14T00:53:54;7.53;;;4.00;;
38332;SDS011;25748;46.670;14.272;2023-02-14T00:56:20;4.93;;;3.07;;
38332;SDS011;25748;46.670;14.272;2023-02-14T00:58:45;5.77;;;3.17;;
38332;SDS011;25748;46.670;14.272;2023-02-14T01:01:11;6.97;;;3.60;;
38332;SDS011;25748;46.670;14.272;2023-02-14T01:03:38;8.30;;;4.40;;
38332;SDS011;25748;46.670;14.272;2023-02-14T01:06:04;6.00;;;3.40;;
38332;SDS011;25748;46.670;14.272;2023-02-14T01:08:31;7.50;;;3.30;;
38332;SDS011;25748;46.670;14.272;2023-02-14T01:10:56;10.50;;;4.20;;
38332;SDS011;25748;46.670;14.272;2023-02-14T01:13:22;6.30;;;3.03;;
38332;SDS011;25748;46.670;14.272;2023-02-14T01:15:49;4.27;;;2.87;;
38332;SDS011;25748;46.670;14.272;2023-02-14T01:18:16;6.37;;;2.73;;
38332;SDS011;25748;46.670;14.272;2023-02-14T01:20:43;9.20;;;4.20;;
38332;SDS011;25748;46.670;14.272;2023-02-14T01:23:08;5.60;;;4.03;;
38332;SDS011;25748;46.670;14.272;2023-02-14T01:25:38;9.33;;;3.73;;
38332;SDS011;25748;46.670;14.272;2023-02-14T01:28:04;8.17;;;3.30;;
38332;SDS011;25748;46.670;14.272;2023-02-14T01:30:31;7.73;;;3.50;;
38332;SDS011;25748;46.670;14.272;2023-02-14T01:32:57;11.40;;;3.87;;
38332;SDS011;25748;46.670;14.272;2023-02-14T01:35:22;5.77;;;3.30;;
38332;SDS011;25748;46.670;14.272;2023-02-14T01:37:48;9.83;;;3.53;;
38332;SDS011;25748;46.670;14.272;2023-02-14T01:40:14;8.93;;;3.07;;
38332;SDS011;25748;46.670;14.272;2023-02-14T01:42:40;8.03;;;4.07;;
38332;SDS011;25748;46.670;14.272;2023-02-14T01:45:07;7.57;;;3.67;;
38332;SDS011;25748;46.670;14.272;2023-02-14T01:47:44;5.33;;;3.20;;
38332;SDS011;25748;46.670;14.272;2023-02-14T01:50:15;8.13;;;3.40;;
38332;SDS011;25748;46.670;14.272;2023-02-14T01:52:47;6.47;;;3.50;;
38332;SDS011;25748;46.670;14.272;2023-02-14T01:55:18;6.17;;;3.67;;
38332;SDS011;25748;46.670;14.272;2023-02-14T01:57:49;5.00;;;2.95;;
38332;SDS011;25748;46.670;14.272;2023-02-14T02:00:23;8.20;;;3.97;;
38332;SDS011;25748;46.670;14.272;2023-02-14T02:03:08;7.40;;;3.60;;
38332;SDS011;25748;46.670;14.272;2023-02-14T02:05:35;7.80;;;3.60;;
38332;SDS011;25748;46.670;14.272;2023-02-14T02:08:03;5.90;;;3.50;;
38332;SDS011;25748;46.670;14.272;2023-02-14T02:10:29;5.97;;;3.07;;
38332;SDS011;25748;46.670;14.272;2023-02-14T02:12:55;5.67;;;2.83;;
38332;SDS011;25748;46.670;14.272;2023-02-14T02:15:26;3.65;;;2.65;;
38332;SDS011;25748;46.670;14.272;2023-02-14T02:18:30;6.70;;;3.70;;
38332;SDS011;25748;46.670;14.272;2023-02-14T02:21:22;8.73;;;2.83;;
38332;SDS011;25748;46.670;14.272;2023-02-14T02:24:16;15.82;;;3.08;;
38332;SDS011;25748;46.670;14.272;2023-02-14T02:27:10;10.15;;;3.92;;
38332;SDS011;25748;46.670;14.272;2023-02-14T02:44:16;8.37;;;4.37;;
38332;SDS011;25748;46.670;14.272;2023-02-14T02:58:42;7.03;;;3.33;;
38332;SDS011;25748;46.670;14.272;2023-02-14T03:01:30;8.45;;;2.80;;
38332;SDS011;25748;46.670;14.272;2023-02-14T03:04:00;8.20;;;3.80;;
38332;SDS011;25748;46.670;14.272;2023-02-14T03:06:47;8.47;;;4.37;;
38332;SDS011;25748;46.670;14.272;2023-02-14T03:15:11;11.30;;;3.03;;
38332;SDS011;25748;46.670;14.272;2023-02-14T03:17:36;4.63;;;2.70;;
38332;SDS011;25748;46.670;14.272;2023-02-14T03:20:12;8.50;;;3.50;;
38332;SDS011;25748;46.670;14.272;2023-02-14T03:22:56;5.30;;;3.00;;
38332;SDS011;25748;46.670;14.272;2023-02-14T03:36:42;8.17;;;2.97;;
38332;SDS011;25748;46.670;14.272;2023-02-14T03:41:49;5.50;;;2.93;;
38332;SDS011;25748;46.670;14.272;2023-02-14T03:44:42;8.50;;;3.30;;
38332;SDS011;25748;46.670;14.272;2023-02-14T03:47:13;8.33;;;3.30;;
38332;SDS011;25748;46.670;14.272;2023-02-14T03:49:45;8.07;;;3.93;;
38332;SDS011;25748;46.670;14.272;2023-02-14T03:52:19;8.80;;;3.00;;
38332;SDS011;25748;46.670;14.272;2023-02-14T03:54:46;7.57;;;3.80;;
38332;SDS011;25748;46.670;14.272;2023-02-14T04:00:12;9.17;;;3.33;;
38332;SDS011;25748;46.670;14.272;2023-02-14T04:02:42;5.87;;;3.10;;
38332;SDS011;25748;46.670;14.272;2023-02-14T04:05:23;4.17;;;3.23;;
38332;SDS011;25748;46.670;14.272;2023-02-14T04:07:52;8.57;;;3.47;;
38332;SDS011;25748;46.670;14.272;2023-02-14T04:10:22;4.88;;;3.42;;
38332;SDS011;25748;46.670;14.272;2023-02-14T04:12:49;4.10;;;2.90;;
38332;SDS011;25748;46.670;14.272;2023-02-14T04:15:15;3.97;;;2.33;;
38332;SDS011;25748;46.670;14.272;2023-02-14T04:17:41;9.43;;;3.07;;
38332;SDS011;25748;46.670;14.272;2023-02-14T04:20:26;4.70;;;3.33;;
38332;SDS011;25748;46.670;14.272;2023-02-14T04:22:52;9.67;;;3.33;;
38332;SDS011;25748;46.670;14.272;2023-02-14T04:25:18;7.43;;;3.23;;
38332;SDS011;25748;46.670;14.272;2023-02-14T04:27:45;9.90;;;3.27;;
38332;SDS011;25748;46.670;14.272;2023-02-14T04:30:11;7.23;;;3.77;;
38332;SDS011;25748;46.670;14.272;2023-02-14T04:32:37;4.47;;;2.70;;
38332;SDS011;25748;46.670;14.272;2023-02-14T04:35:04;9.93;;;4.40;;
38332;SDS011;25748;46.670;14.272;2023-02-14T04:37:30;8.07;;;3.57;;
38332;SDS011;25748;46.670;14.272;2023-02-14T04:39:55;10.03;;;3.00;;
38332;SDS011;25748;46.670;14.272;2023-02-14T04:42:21;3.97;;;3.00;;
38332;SDS011;25748;46.670;14.272;2023-02-14T04:44:47;6.97;;;2.60;;
38332;SDS011;25748;46.670;14.272;2023-02-14T04:47:12;7.67;;;2.93;;
38332;SDS011;25748;46.670;14.272;2023-02-14T04:49:38;3.63;;;2.70;;
38332;SDS011;25748;46.670;14.272;2023-02-14T04:52:04;13.87;;;4.87;;
38332;SDS011;25748;46.670;14.272;2023-02-14T04:54:30;8.80;;;3.77;;
38332;SDS011;25748;46.670;14.272;2023-02-14T04:56:56;4.97;;;3.03;;
38332;SDS011;25748;46.670;14.272;2023-02-14T04:59:22;6.37;;;3.50;;
38332;SDS011;25748;46.670;14.272;2023-02-14T05:01:47;7.43;;;3.27;;
38332;SDS011;25748;46.670;14.272;2023-02-14T05:04:13;8.00;;;4.00;;
38332;SDS011;25748;46.670;14.272;2023-02-14T05:06:39;9.23;;;2.67;;
38332;SDS011;25748;46.670;14.272;2023-02-14T05:09:04;6.10;;;2.63;;
38332;SDS011;25748;46.670;14.272;2023-02-14T05:11:30;5.10;;;2.50;;
38332;SDS011;25748;46.670;14.272;2023-02-14T05:13:56;4.87;;;2.97;;
38332;SDS011;25748;46.670;14.272;2023-02-14T05:16:22;5.53;;;2.73;;
38332;SDS011;25748;46.670;14.272;2023-02-14T05:18:48;4.77;;;3.07;;
38332;SDS011;25748;46.670;14.272;2023-02-14T05:21:13;5.83;;;3.10;;
38332;SDS011;25748;46.670;14.272;2023-02-14T05:23:39;4.83;;;3.10;;
38332;SDS011;25748;46.670;14.272;2023-02-14T05:26:05;7.27;;;3.93;;
38332;SDS011;25748;46.670;14.272;2023-02-14T05:28:31;6.83;;;2.83;;
38332;SDS011;25748;46.670;14.272;2023-02-14T05:30:57;7.03;;;2.80;;
38332;SDS011;25748;46.670;14.272;2023-02-14T05:33:23;3.17;;;2.13;;
38332;SDS011;25748;46.670;14.272;2023-02-14T05:35:49;8.50;;;3.30;;
38332;SDS011;25748;46.670;14.272;2023-02-14T05:38:15;7.23;;;3.17;;
38332;SDS011;25748;46.670;14.272;2023-02-14T05:40:41;5.73;;;3.13;;
38332;SDS011;25748;46.670;14.272;2023-02-14T05:43:07;5.30;;;3.00;;
38332;SDS011;25748;46.670;14.272;2023-02-14T05:45:33;5.17;;;3.40;;
38332;SDS011;25748;46.670;14.272;2023-02-14T05:47:59;4.27;;;3.03;;
38332;SDS011;25748;46.670;14.272;2023-02-14T05:50:25;5.70;;;3.10;;
38332;SDS011;25748;46.670;14.272;2023-02-14T05:52:51;7.13;;;3.40;;
38332;SDS011;25748;46.670;14.272;2023-02-14T05:55:17;8.03;;;3.20;;
38332;SDS011;25748;46.670;14.272;2023-02-14T05:57:42;8.07;;;3.47;;
38332;SDS011;25748;46.670;14.272;2023-02-14T06:00:08;8.60;;;3.63;;
38332;SDS011;25748;46.670;14.272;2023-02-14T06:02:35;5.83;;;3.17;;
38332;SDS011;25748;46.670;14.272;2023-02-14T06:05:00;6.43;;;2.83;;
38332;SDS011;25748;46.670;14.272;2023-02-14T06:07:26;4.20;;;2.40;;
38332;SDS011;25748;46.670;14.272;2023-02-14T06:09:51;8.80;;;3.40;;
38332;SDS011;25748;46.670;14.272;2023-02-14T06:12:17;7.37;;;4.00;;
38332;SDS011;25748;46.670;14.272;2023-02-14T06:14:43;8.97;;;3.80;;
38332;SDS011;25748;46.670;14.272;2023-02-14T06:17:09;10.53;;;4.03;;
38332;SDS011;25748;46.670;14.272;2023-02-14T06:19:35;16.47;;;4.50;;
38332;SDS011;25748;46.670;14.272;2023-02-14T06:22:01;9.70;;;3.53;;
38332;SDS011;25748;46.670;14.272;2023-02-14T06:24:27;7.83;;;3.87;;
38332;SDS011;25748;46.670;14.272;2023-02-14T06:26:53;6.73;;;3.70;;
38332;SDS011;25748;46.670;14.272;2023-02-14T06:29:19;9.37;;;4.40;;
38332;SDS011;25748;46.670;14.272;2023-02-14T06:31:45;9.27;;;4.47;;
38332;SDS011;25748;46.670;14.272;2023-02-14T06:34:10;10.97;;;4.30;;
38332;SDS011;25748;46.670;14.272;2023-02-14T06:36:36;8.33;;;4.67;;
38332;SDS011;25748;46.670;14.272;2023-02-14T06:39:02;9.60;;;3.80;;
38332;SDS011;25748;46.670;14.272;2023-02-14T06:41:28;8.70;;;3.97;;
38332;SDS011;25748;46.670;14.272;2023-02-14T06:43:54;13.23;;;4.00;;
38332;SDS011;25748;46.670;14.272;2023-02-14T06:46:20;7.03;;;3.97;;
38332;SDS011;25748;46.670;14.272;2023-02-14T06:48:47;14.10;;;4.53;;
38332;SDS011;25748;46.670;14.272;2023-02-14T06:51:12;9.57;;;4.23;;
38332;SDS011;25748;46.670;14.272;2023-02-14T06:53:38;8.90;;;4.63;;
38332;SDS011;25748;46.670;14.272;2023-02-14T06:56:04;10.43;;;4.53;;
38332;SDS011;25748;46.670;14.272;2023-02-14T06:58:30;10.13;;;4.87;;
38332;SDS011;25748;46.670;14.272;2023-02-14T07:00:56;10.30;;;4.97;;
38332;SDS011;25748;46.670;14.272;2023-02-14T07:03:23;6.93;;;4.73;;
38332;SDS011;25748;46.670;14.272;2023-02-14T07:05:52;9.80;;;4.30;;
38332;SDS011;25748;46.670;14.272;2023-02-14T07:08:18;9.33;;;4.70;;
38332;SDS011;25748;46.670;14.272;2023-02-14T07:10:44;9.80;;;4.73;;
38332;SDS011;25748;46.670;14.272;2023-02-14T07:13:10;10.80;;;4.77;;
38332;SDS011;25748;46.670;14.272;2023-02-14T07:15:36;8.37;;;4.33;;
38332;SDS011;25748;46.670;14.272;2023-02-14T07:18:01;13.23;;;4.43;;
38332;SDS011;25748;46.670;14.272;2023-02-14T07:20:27;15.80;;;5.90;;
38332;SDS011;25748;46.670;14.272;2023-02-14T07:22:53;10.07;;;4.30;;
38332;SDS011;25748;46.670;14.272;2023-02-14T07:25:19;9.17;;;4.57;;
38332;SDS011;25748;46.670;14.272;2023-02-14T07:27:45;6.47;;;4.70;;
38332;SDS011;25748;46.670;14.272;2023-02-14T07:30:11;15.67;;;7.07;;
38332;SDS011;25748;46.670;14.272;2023-02-14T07:32:37;11.77;;;4.77;;
38332;SDS011;25748;46.670;14.272;2023-02-14T07:35:04;12.13;;;5.90;;
38332;SDS011;25748;46.670;14.272;2023-02-14T07:37:31;8.83;;;5.37;;
38332;SDS011;25748;46.670;14.272;2023-02-14T07:39:57;11.37;;;5.23;;
38332;SDS011;25748;46.670;14.272;2023-02-14T07:42:23;15.23;;;4.90;;
38332;SDS011;25748;46.670;14.272;2023-02-14T07:44:49;7.77;;;5.10;;
38332;SDS011;25748;46.670;14.272;2023-02-14T07:47:15;11.57;;;5.67;;
38332;SDS011;25748;46.670;14.272;2023-02-14T07:49:40;12.37;;;5.50;;
38332;SDS011;25748;46.670;14.272;2023-02-14T07:52:06;14.30;;;5.37;;
38332;SDS011;25748;46.670;14.272;2023-02-14T07:54:32;9.80;;;4.97;;
38332;SDS011;25748;46.670;14.272;2023-02-14T07:56:58;6.90;;;3.83;;
38332;SDS011;25748;46.670;14.272;2023-02-14T07:59:24;9.57;;;4.73;;
38332;SDS011;25748;46.670;14.272;2023-02-14T08:01:50;10.60;;;5.03;;
38332;SDS011;25748;46.670;14.272;2023-02-14T08:04:15;13.60;;;6.17;;
38332;SDS011;25748;46.670;14.272;2023-02-14T08:06:41;10.63;;;5.33;;
38332;SDS011;25748;46.670;14.272;2023-02-14T08:09:07;13.30;;;5.63;;
38332;SDS011;25748;46.670;14.272;2023-02-14T08:11:48;6.97;;;3.03;;
38332;SDS011;25748;46.670;14.272;2023-02-14T08:14:36;5.10;;;3.13;;
38332;SDS011;25748;46.670;14.272;2023-02-14T08:17:03;6.67;;;3.87;;
38332;SDS011;25748;46.670;14.272;2023-02-14T08:19:29;14.43;;;4.97;;
38332;SDS011;25748;46.670;14.272;2023-02-14T08:21:55;8.53;;;4.13;;
38332;SDS011;25748;46.670;14.272;2023-02-14T08:24:21;7.13;;;4.33;;
38332;SDS011;25748;46.670;14.272;2023-02-14T08:26:46;7.20;;;4.17;;
38332;SDS011;25748;46.670;14.272;2023-02-14T08:29:12;8.80;;;4.63;;
38332;SDS011;25748;46.670;14.272;2023-02-14T08:31:37;8.13;;;4.43;;
38332;SDS011;25748;46.670;14.272;2023-02-14T08:34:04;9.70;;;4.45;;
38332;SDS011;25748;46.670;14.272;2023-02-14T08:36:30;8.52;;;3.83;;
38332;SDS011;25748;46.670;14.272;2023-02-14T08:38:56;7.43;;;3.70;;
38332;SDS011;25748;46.670;14.272;2023-02-14T08:41:21;7.53;;;4.40;;
38332;SDS011;25748;46.670;14.272;2023-02-14T08:43:48;8.90;;;4.22;;
38332;SDS011;25748;46.670;14.272;2023-02-14T08:46:14;10.65;;;4.15;;
38332;SDS011;25748;46.670;14.272;2023-02-14T08:48:40;7.88;;;4.20;;
38332;SDS011;25748;46.670;14.272;2023-02-14T08:51:07;9.35;;;4.70;;
38332;SDS011;25748;46.670;14.272;2023-02-14T08:53:36;7.50;;;4.38;;
38332;SDS011;25748;46.670;14.272;2023-02-14T08:56:03;10.15;;;4.20;;
38332;SDS011;25748;46.670;14.272;2023-02-14T08:58:30;8.25;;;4.47;;
38332;SDS011;25748;46.670;14.272;2023-02-14T09:00:56;6.07;;;3.40;;
38332;SDS011;25748;46.670;14.272;2023-02-14T09:03:22;13.30;;;4.53;;
38332;SDS011;25748;46.670;14.272;2023-02-14T09:05:47;10.55;;;5.15;;
38332;SDS011;25748;46.670;14.272;2023-02-14T09:08:13;10.38;;;5.07;;
38332;SDS011;25748;46.670;14.272;2023-02-14T09:10:39;10.77;;;3.53;;
38332;SDS011;25748;46.670;14.272;2023-02-14T09:13:04;9.05;;;4.90;;
38332;SDS011;25748;46.670;14.272;2023-02-14T09:15:31;8.35;;;4.32;;
38332;SDS011;25748;46.670;14.272;2023-02-14T09:17:57;11.13;;;5.55;;
38332;SDS011;25748;46.670;14.272;2023-02-14T09:20:22;9.75;;;4.38;;
38332;SDS011;25748;46.670;14.272;2023-02-14T09:22:48;6.70;;;4.32;;
38332;SDS011;25748;46.670;14.272;2023-02-14T09:25:14;7.78;;;4.15;;
38332;SDS011;25748;46.670;14.272;2023-02-14T09:27:40;8.80;;;4.28;;
38332;SDS011;25748;46.670;14.272;2023-02-14T09:30:06;11.13;;;3.97;;
38332;SDS011;25748;46.670;14.272;2023-02-14T09:32:33;13.75;;;4.45;;
38332;SDS011;25748;46.670;14.272;2023-02-14T09:34:59;9.35;;;3.95;;
38332;SDS011;25748;46.670;14.272;2023-02-14T09:37:24;10.55;;;4.15;;
38332;SDS011;25748;46.670;14.272;2023-02-14T09:39:50;8.85;;;3.50;;
38332;SDS011;25748;46.670;14.272;2023-02-14T09:45:05;7.43;;;3.92;;
38332;SDS011;25748;46.670;14.272;2023-02-14T09:50:16;10.02;;;3.88;;
38332;SDS011;25748;46.670;14.272;2023-02-14T09:52:50;7.00;;;3.92;;
38332;SDS011;25748;46.670;14.272;2023-02-14T09:55:19;7.38;;;4.05;;
38332;SDS011;25748;46.670;14.272;2023-02-14T10:00:29;9.25;;;4.10;;
38332;SDS011;25748;46.670;14.272;2023-02-14T10:06:25;7.90;;;3.83;;
38332;SDS011;25748;46.670;14.272;2023-02-14T10:11:55;9.27;;;4.18;;
38332;SDS011;25748;46.670;14.272;2023-02-14T10:14:25;9.70;;;3.85;;
38332;SDS011;25748;46.670;14.272;2023-02-14T10:19:59;6.43;;;3.65;;
38332;SDS011;25748;46.670;14.272;2023-02-14T10:22:36;11.07;;;3.33;;
38332;SDS011;25748;46.670;14.272;2023-02-14T10:25:13;6.97;;;3.72;;
38332;SDS011;25748;46.670;14.272;2023-02-14T10:27:48;10.15;;;4.38;;
38332;SDS011;25748;46.670;14.272;2023-02-14T10:30:20;9.25;;;4.30;;
38332;SDS011;25748;46.670;14.272;2023-02-14T10:35:37;12.00;;;4.82;;
38332;SDS011;25748;46.670;14.272;2023-02-14T10:54:21;8.05;;;4.57;;
38332;SDS011;25748;46.670;14.272;2023-02-14T10:56:55;10.68;;;4.88;;
38332;SDS011;25748;46.670;14.272;2023-02-14T10:59:42;7.30;;;4.38;;
38332;SDS011;25748;46.670;14.272;2023-02-14T11:02:19;9.40;;;3.85;;
38332;SDS011;25748;46.670;14.272;2023-02-14T11:04:48;9.82;;;4.53;;
38332;SDS011;25748;46.670;14.272;2023-02-14T11:07:15;10.85;;;4.70;;
38332;SDS011;25748;46.670;14.272;2023-02-14T11:09:43;9.52;;;4.72;;
38332;SDS011;25748;46.670;14.272;2023-02-14T11:12:09;9.23;;;4.25;;
38332;SDS011;25748;46.670;14.272;2023-02-14T11:14:36;10.02;;;4.68;;
38332;SDS011;25748;46.670;14.272;2023-02-14T11:20:26;10.80;;;5.23;;
38332;SDS011;25748;46.670;14.272;2023-02-14T11:22:56;7.10;;;4.18;;
38332;SDS011;25748;46.670;14.272;2023-02-14T11:25:23;9.05;;;4.60;;
38332;SDS011;25748;46.670;14.272;2023-02-14T11:27:58;8.68;;;4.60;;
38332;SDS011;25748;46.670;14.272;2023-02-14T11:30:28;12.00;;;5.00;;
38332;SDS011;25748;46.670;14.272;2023-02-14T11:36:10;8.52;;;4.53;;
38332;SDS011;25748;46.670;14.272;2023-02-14T11:38:39;10.05;;;4.80;;
38332;SDS011;25748;46.670;14.272;2023-02-14T11:41:07;9.50;;;4.90;;
38332;SDS011;25748;46.670;14.272;2023-02-14T11:43:36;9.27;;;5.07;;
38332;SDS011;25748;46.670;14.272;2023-02-14T11:46:13;8.88;;;5.68;;
38332;SDS011;25748;46.670;14.272;2023-02-14T11:51:34;6.72;;;3.83;;
38332;SDS011;25748;46.670;14.272;2023-02-14T11:54:02;10.30;;;4.70;;
38332;SDS011;25748;46.670;14.272;2023-02-14T11:56:43;10.30;;;4.25;;
38332;SDS011;25748;46.670;14.272;2023-02-14T11:59:10;8.05;;;4.03;;
38332;SDS011;25748;46.670;14.272;2023-02-14T12:01:38;7.30;;;4.10;;
38332;SDS011;25748;46.670;14.272;2023-02-14T12:04:05;11.13;;;4.88;;
38332;SDS011;25748;46.670;14.272;2023-02-14T12:06:39;12.10;;;5.40;;
38332;SDS011;25748;46.670;14.272;2023-02-14T12:11:57;12.55;;;5.40;;
38332;SDS011;25748;46.670;14.272;2023-02-14T12:14:27;10.02;;;5.93;;
38332;SDS011;25748;46.670;14.272;2023-02-14T12:17:06;12.90;;;6.18;;
38332;SDS011;25748;46.670;14.272;2023-02-14T12:22:28;12.45;;;6.65;;
38332;SDS011;25748;46.670;14.272;2023-02-14T12:25:13;17.50;;;7.07;;
38332;SDS011;25748;46.670;14.272;2023-02-14T12:30:15;15.93;;;6.97;;
38332;SDS011;25748;46.670;14.272;2023-02-14T12:32:48;12.67;;;6.53;;
38332;SDS011;25748;46.670;14.272;2023-02-14T12:38:08;12.73;;;6.47;;
38332;SDS011;25748;46.670;14.272;2023-02-14T12:43:14;14.27;;;5.50;;
38332;SDS011;25748;46.670;14.272;2023-02-14T12:46:02;14.10;;;6.03;;
38332;SDS011;25748;46.670;14.272;2023-02-14T12:48:35;12.52;;;6.18;;
38332;SDS011;25748;46.670;14.272;2023-02-14T13:07:35;17.40;;;6.50;;
38332;SDS011;25748;46.670;14.272;2023-02-14T13:16:15;11.02;;;5.60;;
38332;SDS011;25748;46.670;14.272;2023-02-14T13:22:00;12.50;;;5.55;;
38332;SDS011;25748;46.670;14.272;2023-02-14T13:24:31;14.50;;;5.82;;
38332;SDS011;25748;46.670;14.272;2023-02-14T13:27:04;10.82;;;5.35;;
38332;SDS011;25748;46.670;14.272;2023-02-14T13:29:41;9.75;;;5.68;;
38332;SDS011;25748;46.670;14.272;2023-02-14T13:32:18;13.32;;;5.32;;
38332;SDS011;25748;46.670;14.272;2023-02-14T13:34:47;11.95;;;5.18;;
38332;SDS011;25748;46.670;14.272;2023-02-14T13:37:15;10.98;;;5.45;;
38332;SDS011;25748;46.670;14.272;2023-02-14T13:39:57;11.25;;;4.60;;
38332;SDS011;25748;46.670;14.272;2023-02-14T13:50:53;6.95;;;4.43;;
38332;SDS011;25748;46.670;14.272;2023-02-14T13:58:46;8.32;;;5.00;;
38332;SDS011;25748;46.670;14.272;2023-02-14T14:17:35;12.50;;;3.97;;
38332;SDS011;25748;46.670;14.272;2023-02-14T14:25:14;6.68;;;3.25;;
38332;SDS011;25748;46.670;14.272;2023-02-14T14:27:55;6.50;;;3.30;;
38332;SDS011;25748;46.670;14.272;2023-02-14T14:30:23;6.88;;;3.30;;
38332;SDS011;25748;46.670;14.272;2023-02-14T14:32:53;5.88;;;2.83;;
38332;SDS011;25748;46.670;14.272;2023-02-14T14:35:21;6.03;;;3.10;;
38332;SDS011;25748;46.670;14.272;2023-02-14T14:37:52;8.15;;;4.07;;
38332;SDS011;25748;46.670;14.272;2023-02-14T14:40:24;6.63;;;3.30;;
38332;SDS011;25748;46.670;14.272;2023-02-14T14:43:38;5.78;;;3.38;;
38332;SDS011;25748;46.670;14.272;2023-02-14T14:45:59;6.03;;;2.97;;
38332;SDS011;25748;46.670;14.272;2023-02-14T14:48:28;8.40;;;3.67;;
38332;SDS011;25748;46.670;14.272;2023-02-14T14:51:05;13.10;;;4.57;;
38332;SDS011;25748;46.670;14.272;2023-02-14T14:53:44;6.40;;;3.22;;
38332;SDS011;25748;46.670;14.272;2023-02-14T14:56:20;6.40;;;3.53;;
38332;SDS011;25748;46.670;14.272;2023-02-14T14:58:49;9.95;;;3.75;;
38332;SDS011;25748;46.670;14.272;2023-02-14T15:06:43;5.40;;;3.25;;
38332;SDS011;25748;46.670;14.272;2023-02-14T15:09:11;13.15;;;4.30;;
38332;SDS011;25748;46.670;14.272;2023-02-14T15:11:39;10.32;;;3.60;;
38332;SDS011;25748;46.670;14.272;2023-02-14T15:14:25;6.55;;;3.10;;
38332;SDS011;25748;46.670;14.272;2023-02-14T15:16:54;7.93;;;3.40;;
38332;SDS011;25748;46.670;14.272;2023-02-14T15:19:30;10.80;;;3.38;;
38332;SDS011;25748;46.670;14.272;2023-02-14T15:22:03;8.38;;;3.25;;
38332;SDS011;25748;46.670;14.272;2023-02-14T15:24:43;9.85;;;3.22;;
38332;SDS011;25748;46.670;14.272;2023-02-14T15:27:13;7.47;;;3.95;;
38332;SDS011;25748;46.670;14.272;2023-02-14T15:29:49;10.82;;;3.45;;
38332;SDS011;25748;46.670;14.272;2023-02-14T15:32:24;7.32;;;2.95;;
38332;SDS011;25748;46.670;14.272;2023-02-14T15:34:54;8.57;;;3.90;;
38332;SDS011;25748;46.670;14.272;2023-02-14T15:37:21;7.30;;;3.50;;
38332;SDS011;25748;46.670;14.272;2023-02-14T15:39:49;9.70;;;3.80;;
38332;SDS011;25748;46.670;14.272;2023-02-14T15:42:32;11.32;;;3.28;;
38332;SDS011;25748;46.670;14.272;2023-02-14T15:45:19;7.03;;;3.05;;
38332;SDS011;25748;46.670;14.272;2023-02-14T15:55:44;6.55;;;3.03;;
38332;SDS011;25748;46.670;14.272;2023-02-14T15:58:16;9.98;;;2.75;;
38332;SDS011;25748;46.670;14.272;2023-02-14T16:00:46;10.55;;;3.58;;
38332;SDS011;25748;46.670;14.272;2023-02-14T16:03:24;7.78;;;2.60;;
38332;SDS011;25748;46.670;14.272;2023-02-14T16:05:57;8.98;;;3.78;;
38332;SDS011;25748;46.670;14.272;2023-02-14T16:13:44;10.43;;;3.25;;
38332;SDS011;25748;46.670;14.272;2023-02-14T16:16:12;8.18;;;3.60;;
38332;SDS011;25748;46.670;14.272;2023-02-14T16:18:40;10.88;;;2.95;;
38332;SDS011;25748;46.670;14.272;2023-02-14T16:21:18;14.48;;;3.55;;
38332;SDS011;25748;46.670;14.272;2023-02-14T16:23:45;4.90;;;2.30;;
38332;SDS011;25748;46.670;14.272;2023-02-14T16:26:41;7.35;;;2.60;;
38332;SDS011;25748;46.670;14.272;2023-02-14T16:29:15;4.20;;;2.33;;
38332;SDS011;25748;46.670;14.272;2023-02-14T16:31:47;4.53;;;2.30;;
38332;SDS011;25748;46.670;14.272;2023-02-14T16:34:24;7.05;;;2.30;;
38332;SDS011;25748;46.670;14.272;2023-02-14T16:36:51;7.90;;;2.90;;
38332;SDS011;25748;46.670;14.272;2023-02-14T16:39:18;5.60;;;3.00;;
38332;SDS011;25748;46.670;14.272;2023-02-14T16:41:50;5.82;;;1.85;;
38332;SDS011;25748;46.670;14.272;2023-02-14T16:44:29;3.65;;;2.20;;
38332;SDS011;25748;46.670;14.272;2023-02-14T16:46:57;16.92;;;2.30;;
38332;SDS011;25748;46.670;14.272;2023-02-14T16:49:31;5.07;;;1.73;;
38332;SDS011;25748;46.670;14.272;2023-02-14T16:51:57;3.35;;;1.90;;
38332;SDS011;25748;46.670;14.272;2023-02-14T16:54:24;4.93;;;2.13;;
38332;SDS011;25748;46.670;14.272;2023-02-14T16:56:52;5.63;;;1.70;;
38332;SDS011;25748;46.670;14.272;2023-02-14T16:59:23;4.20;;;2.03;;
38332;SDS011;25748;46.670;14.272;2023-02-14T17:01:48;2.53;;;1.63;;
38332;SDS011;25748;46.670;14.272;2023-02-14T17:04:14;5.40;;;2.00;;
38332;SDS011;25748;46.670;14.272;2023-02-14T17:06:40;3.67;;;1.77;;
38332;SDS011;25748;46.670;14.272;2023-02-14T17:09:11;3.85;;;1.73;;
38332;SDS011;25748;46.670;14.272;2023-02-14T17:11:40;4.07;;;1.80;;
38332;SDS011;25748;46.670;14.272;2023-02-14T17:14:09;5.03;;;1.55;;
38332;SDS011;25748;46.670;14.272;2023-02-14T17:16:38;6.15;;;2.75;;
38332;SDS011;25748;46.670;14.272;2023-02-14T17:19:04;6.80;;;2.90;;
38332;SDS011;25748;46.670;14.272;2023-02-14T17:21:30;11.90;;;2.05;;
38332;SDS011;25748;46.670;14.272;2023-02-14T17:23:58;8.93;;;2.65;;
38332;SDS011;25748;46.670;14.272;2023-02-14T17:26:23;6.55;;;3.38;;
38332;SDS011;25748;46.670;14.272;2023-02-14T17:28:49;6.18;;;3.60;;
38332;SDS011;25748;46.670;14.272;2023-02-14T17:31:15;5.93;;;3.38;;
38332;SDS011;25748;46.670;14.272;2023-02-14T17:33:41;7.32;;;3.22;;
38332;SDS011;25748;46.670;14.272;2023-02-14T17:36:08;3.65;;;2.17;;
38332;SDS011;25748;46.670;14.272;2023-02-14T17:38:36;5.57;;;2.20;;
38332;SDS011;25748;46.670;14.272;2023-02-14T17:41:10;4.18;;;1.67;;
38332;SDS011;25748;46.670;14.272;2023-02-14T17:43:45;4.13;;;1.83;;
38332;SDS011;25748;46.670;14.272;2023-02-14T17:46:12;2.13;;;1.40;;
38332;SDS011;25748;46.670;14.272;2023-02-14T17:48:43;4.32;;;1.85;;
38332;SDS011;25748;46.670;14.272;2023-02-14T17:51:10;3.30;;;1.50;;